Time;durP1;ratioP1;P1;durP2;ratioP2;P2;SDS_P1;SDS_P2;PMS_P1;PMS_P2;Temp;Humidity;BMP_temperature;BMP_pressure;BME280_temperature;BME280_humidity;BME280_pressure;Samples;Min_cycle;Max_cycle;Signal;HPM_P1;HPM_P2
2022/06/09 00:01:15;;;;;;;;;;;;;;;;;;4898486;29;8399;-84
2022/06/09 00:03:58;;;;;;;;;;;;;;;;;;4898672;29;8466;-84
2022/06/09 00:06:28;;;;;;;;;;;;;;;;;;4898357;29;8468;-85
2022/06/09 00:08:54;;;;;;;;;;;;;;;;;;4898395;29;8469;-85
2022/06/09 00:11:21;;;;;;;;;;;;;;;;;;4898192;29;7163;-85
2022/06/09 00:13:47;;;;;;;;;;;;;;;;;;4898613;29;8426;-85
2022/06/09 00:16:13;;;;;;;;;;;;;;;;;;4898544;29;8855;-85
2022/06/09 00:18:39;;;;;;;;;;;;;;;;;;4898587;29;7500;-85
2022/06/09 00:21:05;;;;;;;;;;;;;;;;;;4898490;29;8376;-85
2022/06/09 00:23:30;;;;;;;;;;;;;;;;;;4898486;29;8410;-85
2022/06/09 00:25:55;;;;;;;;;;;;;;;;;;4898476;29;8852;-85
2022/06/09 00:28:21;;;;;;;;;;;;;;;;;;4901812;29;8522;-85
2022/06/09 00:30:46;;;;;;;;;;;;;;;;;;4902280;29;8675;-86
2022/06/09 00:33:13;;;;;;;;;;;;;;;;;;4901855;29;8516;-85
2022/06/09 00:35:40;;;;;;;;;;;;;;;;;;4901996;29;8500;-85
2022/06/09 00:38:05;;;;;;;;;;;;;;;;;;4901874;29;8361;-85
2022/06/09 00:40:32;;;;;;;;;;;;;;;;;;4902086;29;8435;-85
2022/06/09 00:42:59;;;;;;;;;;;;;;;;;;4901455;29;8437;-85
2022/06/09 00:45:27;;;;;;;;;;;;;;;;;;4901711;29;7126;-85
2022/06/09 00:47:58;;;;;;;;;;;;;;;;;;4902156;29;8639;-85
2022/06/09 00:50:26;;;;;;;;;;;;;;;;;;4901631;29;8985;-85
2022/06/09 00:52:56;;;;;;;;;;;;;;;;;;4902023;29;7196;-85
2022/06/09 00:55:24;;;;;;;;;;;;;;;;;;4901831;29;8451;-85
2022/06/09 00:57:54;;;;;;;;;;;;;;;;;;4901932;29;8414;-85
2022/06/09 01:00:22;;;;;;;;;;;;;;;;;;4901376;29;7145;-85
2022/06/09 01:02:50;;;;;;;;;;;;;;;;;;4901654;29;8423;-85
2022/06/09 01:05:19;;;;;;;;;;;;;;;;;;4901281;29;7316;-85
2022/06/09 01:07:50;;;;;;;;;;;;;;;;;;4901893;29;7339;-85
2022/06/09 01:10:17;;;;;;;;;;;;;;;;;;4901357;29;8594;-85
2022/06/09 01:12:45;;;;;;;;;;;;;;;;;;4900991;29;8616;-85
2022/06/09 01:15:10;;;;;;;;;;;;;;;;;;4901104;29;8507;-86
2022/06/09 01:17:42;;;;;;;;;;;;;;;;;;4901351;29;8459;-85
2022/06/09 01:20:07;;;;;;;;;;;;;;;;;;4901077;29;8419;-85
2022/06/09 01:22:45;;;;;;;;;;;;;;;;;;4901372;29;8441;-85
2022/06/09 01:25:13;;;;;;;;;;;;;;;;;;4901986;29;7115;-85
2022/06/09 01:28:03;;;;;;;;;;;;;;;;;;4900824;29;7266;-85
2022/06/09 01:30:47;;;;;;;;;;;;;;;;;;4901316;29;8597;-85
2022/06/09 01:33:25;;;;;;;;;;;;;;;;;;4901076;29;8663;-85
2022/06/09 01:35:55;;;;;;;;;;;;;;;;;;4901546;29;7337;-85
2022/06/09 01:38:22;;;;;;;;;;;;;;;;;;4900431;29;8369;-85
2022/06/09 01:40:47;;;;;;;;;;;;;;;;;;4901100;29;8442;-85
2022/06/09 01:43:13;;;;;;;;;;;;;;;;;;4900714;29;8559;-85
2022/06/09 01:45:44;;;;;;;;;;;;;;;;;;4900705;29;8540;-85
2022/06/09 01:48:12;;;;;;;;;;;;;;;;;;4901008;29;8517;-85
2022/06/09 01:50:57;;;;;;;;;;;;;;;;;;4900936;29;7485;-85
2022/06/09 01:53:35;;;;;;;;;;;;;;;;;;4900666;29;7093;-85
2022/06/09 01:56:08;;;;;;;;;;;;;;;;;;4900935;29;7146;-85
2022/06/09 01:58:59;;;;;;;;;;;;;;;;;;4900412;29;6903;-85
2022/06/09 02:01:28;;;;;;;;;;;;;;;;;;4900059;29;8467;-85
2022/06/09 02:03:58;;;;;;;;;;;;;;;;;;4900621;29;8906;-85
2022/06/09 02:06:24;;;;;;;;;;;;;;;;;;4900649;29;7340;-86
2022/06/09 02:08:50;;;;;;;;;;;;;;;;;;4900293;29;8888;-85
2022/06/09 02:11:16;;;;;;;;;;;;;;;;;;4901942;29;8501;-85
2022/06/09 02:13:50;;;;;;;;;;;;;;;;;;4900414;29;8472;-85
2022/06/09 02:16:18;;;;;;;;;;;;;;;;;;4900904;29;7343;-85
2022/06/09 02:18:46;;;;;;;;;;;;;;;;;;4900400;29;8885;-85
2022/06/09 02:21:15;;;;;;;;;;;;;;;;;;4900417;29;7265;-81
2022/06/09 02:23:41;;;;;;;;;;;;;;;;;;4900100;29;8564;-81
2022/06/09 02:26:06;;;;;;;;;;;;;;;;;;4900004;29;8807;-82
2022/06/09 02:28:32;;;;;;;;;;;;;;;;;;4900364;29;8839;-82
2022/06/09 02:30:58;;;;;;;;;;;;;;;;;;4900178;29;8903;-81
2022/06/09 02:33:24;;;;;;;;;;;;;;;;;;4900318;29;7232;-81
2022/06/09 02:35:50;;;;;;;;;;;;;;;;;;4900096;29;7114;-81
2022/06/09 02:38:17;;;;;;;;;;;;;;;;;;4900057;29;8497;-81
2022/06/09 02:40:42;;;;;;;;;;;;;;;;;;4899730;29;7246;-81
2022/06/09 02:43:08;;;;;;;;;;;;;;;;;;4899989;29;8759;-81
2022/06/09 02:45:34;;;;;;;;;;;;;;;;;;4899754;29;7249;-82
2022/06/09 02:48:01;;;;;;;;;;;;;;;;;;4899774;29;8705;-82
2022/06/09 02:50:27;;;;;;;;;;;;;;;;;;4899577;29;7508;-82
2022/06/09 02:52:53;;;;;;;;;;;;;;;;;;4899587;29;8548;-82
2022/06/09 02:55:18;;;;;;;;;;;;;;;;;;4899970;29;7281;-82
2022/06/09 02:57:43;;;;;;;;;;;;;;;;;;4899414;29;8507;-81
2022/06/09 03:00:14;;;;;;;;;;;;;;;;;;4899487;29;8457;-82
2022/06/09 03:02:41;;;;;;;;;;;;;;;;;;4899850;29;9331;-83
2022/06/09 03:05:07;;;;;;;;;;;;;;;;;;4899128;29;7452;-82
2022/06/09 03:07:32;;;;;;;;;;;;;;;;;;4899324;29;7237;-81
2022/06/09 03:09:57;;;;;;;;;;;;;;;;;;4899111;29;8633;-82
2022/06/09 03:12:23;;;;;;;;;;;;;;;;;;4899636;29;8430;-82
2022/06/09 03:14:49;;;;;;;;;;;;;;;;;;4899576;29;8448;-82
2022/06/09 03:17:15;;;;;;;;;;;;;;;;;;4899431;29;7517;-82
2022/06/09 03:19:40;;;;;;;;;;;;;;;;;;4899258;29;8852;-81
2022/06/09 03:22:06;;;;;;;;;;;;;;;;;;4898402;29;8382;-82
2022/06/09 03:24:31;;;;;;;;;;;;;;;;;;4898904;29;7210;-82
2022/06/09 03:26:57;;;;;;;;;;;;;;;;;;4898782;29;8589;-81
2022/06/09 03:29:24;;;;;;;;;;;;;;;;;;4898980;29;8755;-83
2022/06/09 03:31:50;;;;;;;;;;;;;;;;;;4899117;29;8505;-82
2022/06/09 03:34:16;;;;;;;;;;;;;;;;;;4897535;29;7166;-81
2022/06/09 03:36:45;;;;;;;;;;;;;;;;;;4897753;29;7263;-82
2022/06/09 03:39:12;;;;;;;;;;;;;;;;;;4897383;29;8718;-81
2022/06/09 03:41:38;;;;;;;;;;;;;;;;;;4897260;29;8435;-81
2022/06/09 03:44:04;;;;;;;;;;;;;;;;;;4897318;29;8796;-82
2022/06/09 03:46:30;;;;;;;;;;;;;;;;;;4896464;29;8440;-82
2022/06/09 03:48:55;;;;;;;;;;;;;;;;;;4897370;29;8515;-85
2022/06/09 03:51:21;;;;;;;;;;;;;;;;;;4894968;29;8445;-84
2022/06/09 03:53:46;;;;;;;;;;;;;;;;;;4897505;29;7086;-85
2022/06/09 03:56:17;;;;;;;;;;;;;;;;;;4897479;29;8839;-84
2022/06/09 03:58:43;;;;;;;;;;;;;;;;;;4889253;29;8764;-85
2022/06/09 04:01:13;;;;;;;;;;;;;;;;;;4893208;29;8535;-85
2022/06/09 04:03:42;;;;;;;;;;;;;;;;;;4896991;29;8504;-85
2022/06/09 04:06:16;;;;;;;;;;;;;;;;;;4895833;29;9193;-84
2022/06/09 04:08:41;;;;;;;;;;;;;;;;;;4892512;29;8890;-83
2022/06/09 04:11:08;;;;;;;;;;;;;;;;;;4896904;29;7221;-85
2022/06/09 04:13:34;;;;;;;;;;;;;;;;;;4896595;29;7241;-84
2022/06/09 04:15:59;;;;;;;;;;;;;;;;;;4897242;29;7465;-84
2022/06/09 04:18:25;;;;;;;;;;;;;;;;;;4897043;29;8529;-85
2022/06/09 04:20:50;;;;;;;;;;;;;;;;;;4896149;29;8494;-84
2022/06/09 04:23:16;;;;;;;;;;;;;;;;;;4897084;29;8422;-85
2022/06/09 04:25:41;;;;;;;;;;;;;;;;;;4894807;29;8660;-85
2022/06/09 04:28:07;;;;;;;;;;;;;;;;;;4896869;29;8409;-85
2022/06/09 04:30:32;;;;;;;;;;;;;;;;;;4890996;29;7284;-86
2022/06/09 04:32:58;;;;;;;;;;;;;;;;;;4896781;29;8379;-85
2022/06/09 04:35:24;;;;;;;;;;;;;;;;;;4896140;29;8425;-85
2022/06/09 04:38:01;;;;;;;;;;;;;;;;;;4896024;29;7092;-85
2022/06/09 04:40:29;;;;;;;;;;;;;;;;;;4892557;29;8465;-85
2022/06/09 04:42:55;;;;;;;;;;;;;;;;;;4895035;29;9191;-86
2022/06/09 04:45:21;;;;;;;;;;;;;;;;;;4895824;29;8417;-84
2022/06/09 04:47:46;;;;;;;;;;;;;;;;;;4897351;29;7495;-85
2022/06/09 04:50:12;;;;;;;;;;;;;;;;;;4897312;29;7294;-85
2022/06/09 04:52:39;;;;;;;;;;;;;;;;;;4808645;28;12239;-86
2022/06/09 04:55:05;;;;;;;;;;;;;;;;;;4890139;29;8756;-85
2022/06/09 04:57:30;;;;;;;;;;;;;;;;;;4896341;29;7238;-85
2022/06/09 04:59:56;;;;;;;;;;;;;;;;;;4896727;29;7393;-85
2022/06/09 05:02:21;;;;;;;;;;;;;;;;;;4897837;29;7264;-85
2022/06/09 05:04:47;;;;;;;;;;;;;;;;;;4897601;29;7296;-84
2022/06/09 05:07:12;;;;;;;;;;;;;;;;;;4897934;29;8339;-85
2022/06/09 05:09:38;;;;;;;;;;;;;;;;;;4897782;29;8472;-84
2022/06/09 05:12:04;;;;;;;;;;;;;;;;;;4846382;29;12384;-85
2022/06/09 05:14:30;;;;;;;;;;;;;;;;;;4905250;29;7321;-85
2022/06/09 05:16:55;;;;;;;;;;;;;;;;;;4900863;29;7279;-84
2022/06/09 05:19:21;;;;;;;;;;;;;;;;;;4901234;29;7158;-85
2022/06/09 05:21:47;;;;;;;;;;;;;;;;;;4901649;29;7297;-85
2022/06/09 05:24:13;;;;;;;;;;;;;;;;;;4901336;29;7249;-85
2022/06/09 05:26:38;;;;;;;;;;;;;;;;;;4878713;29;12342;-84
2022/06/09 05:29:04;;;;;;;;;;;;;;;;;;4916605;29;7189;-85
2022/06/09 05:31:29;;;;;;;;;;;;;;;;;;4901460;29;8447;-85
2022/06/09 05:33:55;;;;;;;;;;;;;;;;;;4901365;29;7205;-85
2022/06/09 05:36:20;;;;;;;;;;;;;;;;;;4900743;29;8408;-84
2022/06/09 05:47:19;;;;;;;;;;;;;;;;;;4900213;29;7195;-84
2022/06/09 05:49:47;;;;;;;;;;;;;;;;;;4912694;29;8492;-84
2022/06/09 05:52:14;;;;;;;;;;;;;;;;;;4900642;29;7208;-84
2022/06/09 05:54:39;;;;;;;;;;;;;;;;;;4900576;29;8870;-84
2022/06/09 05:57:05;;;;;;;;;;;;;;;;;;4901095;29;8394;-85
2022/06/09 05:59:30;;;;;;;;;;;;;;;;;;4900467;29;8564;-85
2022/06/09 06:01:56;;;;;;;;;;;;;;;;;;4900164;29;9198;-85
2022/06/09 06:04:21;;;;;;;;;;;;;;;;;;4900209;29;7098;-85
2022/06/09 06:06:47;;;;;;;;;;;;;;;;;;4900564;29;8482;-85
2022/06/09 06:09:14;;;;;;;;;;;;;;;;;;4900075;29;7149;-85
2022/06/09 06:11:41;;;;;;;;;;;;;;;;;;4899616;29;8742;-85
2022/06/09 06:14:08;;;;;;;;;;;;;;;;;;4900683;29;8550;-85
2022/06/09 06:16:34;;;;;;;;;;;;;;;;;;4900297;29;7238;-85
2022/06/09 06:19:00;;;;;;;;;;;;;;;;;;4899019;29;8557;-85
2022/06/09 06:21:26;;;;;;;;;;;;;;;;;;4900288;29;8441;-85
2022/06/09 06:23:52;;;;;;;;;;;;;;;;;;4899751;29;8586;-85
2022/06/09 06:26:18;;;;;;;;;;;;;;;;;;4899623;29;7245;-85
2022/06/09 06:28:44;;;;;;;;;;;;;;;;;;4899387;29;7937;-85
2022/06/09 06:31:10;;;;;;;;;;;;;;;;;;4899695;29;7296;-84
2022/06/09 06:33:36;;;;;;;;;;;;;;;;;;4900040;29;7112;-85
2022/06/09 06:36:02;;;;;;;;;;;;;;;;;;4900119;29;8488;-84
2022/06/09 06:38:28;;;;;;;;;;;;;;;;;;4899788;29;7325;-84
2022/06/09 06:40:54;;;;;;;;;;;;;;;;;;4900282;29;7301;-84
2022/06/09 06:43:21;;;;;;;;;;;;;;;;;;4900136;29;7209;-84
2022/06/09 06:45:47;;;;;;;;;;;;;;;;;;4899631;29;8770;-85
2022/06/09 06:48:12;;;;;;;;;;;;;;;;;;4900362;29;8626;-84
2022/06/09 06:50:38;;;;;;;;;;;;;;;;;;4900026;29;8519;-85
2022/06/09 06:53:05;;;;;;;;;;;;;;;;;;4899096;29;8508;-84
2022/06/09 06:55:30;;;;;;;;;;;;;;;;;;4899667;29;7278;-85
2022/06/09 06:57:56;;;;;;;;;;;;;;;;;;4899360;29;7187;-84
2022/06/09 07:00:23;;;;;;;;;;;;;;;;;;4899693;29;7096;-85
2022/06/09 07:02:48;;;;;;;;;;;;;;;;;;4898114;29;8407;-85
2022/06/09 07:05:15;;;;;;;;;;;;;;;;;;4899039;29;8530;-85
2022/06/09 07:07:40;;;;;;;;;;;;;;;;;;4899155;29;8799;-84
2022/06/09 07:10:08;;;;;;;;;;;;;;;;;;4899313;29;7091;-84
2022/06/09 07:12:34;;;;;;;;;;;;;;;;;;4899229;29;8479;-84
2022/06/09 07:15:00;;;;;;;;;;;;;;;;;;4898863;29;7181;-85
2022/06/09 07:17:26;;;;;;;;;;;;;;;;;;4898999;29;8901;-85
2022/06/09 07:19:51;;;;;;;;;;;;;;;;;;4899562;29;8400;-85
2022/06/09 07:22:18;;;;;;;;;;;;;;;;;;4898999;29;7235;-85
2022/06/09 07:24:44;;;;;;;;;;;;;;;;;;4898898;29;8426;-85
2022/06/09 07:27:09;;;;;;;;;;;;;;;;;;4898988;29;7600;-85
2022/06/09 07:29:35;;;;;;;;;;;;;;;;;;4899265;29;7285;-85
2022/06/09 07:32:01;;;;;;;;;;;;;;;;;;4898928;29;8408;-84
2022/06/09 07:34:26;;;;;;;;;;;;;;;;;;4899051;29;7124;-85
2022/06/09 07:36:52;;;;;;;;;;;;;;;;;;4898301;29;8429;-84
2022/06/09 07:39:18;;;;;;;;;;;;;;;;;;4899052;29;8802;-84
2022/06/09 07:41:43;;;;;;;;;;;;;;;;;;4899142;29;8865;-80
2022/06/09 07:44:10;;;;;;;;;;;;;;;;;;4898738;29;8456;-82
2022/06/09 07:46:36;;;;;;;;;;;;;;;;;;4898776;29;7305;-82
2022/06/09 07:49:02;;;;;;;;;;;;;;;;;;4898763;29;8439;-82
2022/06/09 07:51:29;;;;;;;;;;;;;;;;;;4898535;29;7241;-82
2022/06/09 07:53:56;;;;;;;;;;;;;;;;;;4898828;29;8595;-81
2022/06/09 07:56:23;;;;;;;;;;;;;;;;;;4898543;29;7474;-80
2022/06/09 07:58:50;;;;;;;;;;;;;;;;;;4914237;29;7362;-81
2022/06/09 08:01:18;;;;;;;;;;;;;;;;;;4899138;29;9263;-81
2022/06/09 08:03:44;;;;;;;;;;;;;;;;;;4898711;29;9319;-81
2022/06/09 08:06:11;;;;;;;;;;;;;;;;;;4898685;29;8405;-80
2022/06/09 08:08:37;;;;;;;;;;;;;;;;;;4898665;29;8377;-82
2022/06/09 08:11:05;;;;;;;;;;;;;;;;;;4898762;29;7176;-81
2022/06/09 08:13:32;;;;;;;;;;;;;;;;;;4898848;29;8399;-82
2022/06/09 08:15:58;;;;;;;;;;;;;;;;;;4898114;29;7122;-82
2022/06/09 08:18:24;;;;;;;;;;;;;;;;;;4898342;29;7053;-81
2022/06/09 08:20:50;;;;;;;;;;;;;;;;;;4898181;29;8731;-80
2022/06/09 08:23:18;;;;;;;;;;;;;;;;;;4898334;29;8755;-81
2022/06/09 08:25:45;;;;;;;;;;;;;;;;;;4898097;29;7232;-80
2022/06/09 08:28:12;;;;;;;;;;;;;;;;;;4898244;29;8600;-81
2022/06/09 08:30:38;;;;;;;;;;;;;;;;;;4898678;29;8864;-81
2022/06/09 08:33:05;;;;;;;;;;;;;;;;;;4898759;29;8492;-81
2022/06/09 08:35:32;;;;;;;;;;;;;;;;;;4899940;29;8752;-81
2022/06/09 08:37:57;;;;;;;;;;;;;;;;;;4898773;29;7233;-82
2022/06/09 08:40:27;;;;;;;;;;;;;;;;;;4898684;29;8435;-83
2022/06/09 08:43:13;;;;;;;;;;;;;;;;;;4897856;29;8479;-81
2022/06/09 08:45:41;;;;;;;;;;;;;;;;;;4898041;29;8568;-81
2022/06/09 08:48:13;;;;;;;;;;;;;;;;;;4899716;29;8411;-81
2022/06/09 08:50:42;;;;;;;;;;;;;;;;;;4902296;29;8898;-81
2022/06/09 08:53:08;;;;;;;;;;;;;;;;;;4902217;29;8785;-79
2022/06/09 08:55:41;;;;;;;;;;;;;;;;;;4901568;29;9102;-81
2022/06/09 08:58:15;;;;;;;;;;;;;;;;;;4901825;29;7537;-81
2022/06/09 09:00:43;;;;;;;;;;;;;;;;;;4902496;29;8923;-81
2022/06/09 09:03:23;;;;;;;;;;;;;;;;;;4901837;29;7254;-81
2022/06/09 09:05:51;;;;;;;;;;;;;;;;;;4901936;29;8678;-80
2022/06/09 09:08:17;;;;;;;;;;;;;;;;;;4901717;29;8739;-81
2022/06/09 09:10:51;;;;;;;;;;;;;;;;;;4902041;29;8446;-82
2022/06/09 09:13:17;;;;;;;;;;;;;;;;;;4901731;29;8582;-80
2022/06/09 09:15:45;;;;;;;;;;;;;;;;;;4901390;29;8818;-80
2022/06/09 09:18:30;;;;;;;;;;;;;;;;;;4901268;29;7215;-81
2022/06/09 09:21:16;;;;;;;;;;;;;;;;;;4901525;29;8526;-81
2022/06/09 09:24:00;;;;;;;;;;;;;;;;;;4900873;29;8463;-81
2022/06/09 09:26:52;;;;;;;;;;;;;;;;;;4901128;29;8516;-81
2022/06/09 09:29:22;;;;;;;;;;;;;;;;;;4900756;29;8492;-81
2022/06/09 09:31:49;;;;;;;;;;;;;;;;;;4901190;29;8386;-81
2022/06/09 09:34:18;;;;;;;;;;;;;;;;;;4900907;29;7160;-81
2022/06/09 09:36:48;;;;;;;;;;;;;;;;;;4901003;29;7201;-81
2022/06/09 09:39:20;;;;;;;;;;;;;;;;;;4900964;29;8566;-82
2022/06/09 09:41:46;;;;;;;;;;;;;;;;;;4900614;29;8854;-79
2022/06/09 09:44:14;;;;;;;;;;;;;;;;;;4901339;29;8577;-79
2022/06/09 09:46:40;;;;;;;;;;;;;;;;;;4900528;29;8560;-79
2022/06/09 09:49:20;;;;;;;;;;;;;;;;;;4900753;29;7415;-80
2022/06/09 09:51:46;;;;;;;;;;;;;;;;;;4901462;29;7149;-79
2022/06/09 09:54:27;;;;;;;;;;;;;;;;;;4900920;29;8817;-81
2022/06/09 09:57:04;;;;;;;;;;;;;;;;;;4900662;29;6915;-81
2022/06/09 09:59:31;;;;;;;;;;;;;;;;;;4900139;29;8588;-80
2022/06/09 10:10:28;;;;;;;;;;;;;;;;;;4900243;29;6921;-80
2022/06/09 10:12:56;;;;;;;;;;;;;;;;;;4884297;29;7167;-80
2022/06/09 10:15:23;;;;;;;;;;;;;;;;;;4884196;29;8474;-80
2022/06/09 10:17:51;;;;;;;;;;;;;;;;;;4883969;29;8774;-81
2022/06/09 10:20:25;;;;;;;;;;;;;;;;;;4899211;29;8853;-79
2022/06/09 10:22:56;;;;;;;;;;;;;;;;;;4883735;29;8407;-79
2022/06/09 10:25:31;;;;;;;;;;;;;;;;;;4883700;29;8600;-80
2022/06/09 10:28:23;;;;;;;;;;;;;;;;;;4883600;29;8597;-80
2022/06/09 10:30:54;;;;;;;;;;;;;;;;;;4883362;29;8573;-81
2022/06/09 10:33:54;;;;;;;;;;;;;;;;;;4883593;29;8689;-82
2022/06/09 10:36:20;;;;;;;;;;;;;;;;;;4883792;29;8532;-81
2022/06/09 10:38:48;;;;;;;;;;;;;;;;;;4883712;29;9380;-79
2022/06/09 10:41:23;;;;;;;;;;;;;;;;;;4898847;29;8481;-79
2022/06/09 10:44:05;;;;;;;;;;;;;;;;;;4899071;29;8509;-79
2022/06/09 10:46:39;;;;;;;;;;;;;;;;;;4899035;29;8531;-80
2022/06/09 10:55:15;;;;;;;;;;;;;;;;;;4899187;29;6908;-80
2022/06/09 10:57:48;;;;;;;;;;;;;;;;;;4883224;29;8580;-79
2022/06/09 11:00:18;;;;;;;;;;;;;;;;;;4899273;29;9500;-79
2022/06/09 11:02:47;;;;;;;;;;;;;;;;;;4898672;29;8563;-79
2022/06/09 11:05:23;;;;;;;;;;;;;;;;;;4898585;29;8407;-80
2022/06/09 11:07:48;;;;;;;;;;;;;;;;;;4898825;29;8895;-80
2022/06/09 11:10:24;;;;;;;;;;;;;;;;;;4888881;29;8866;-80
2022/06/09 11:13:08;;;;;;;;;;;;;;;;;;4898830;29;7553;-80
2022/06/09 11:15:47;;;;;;;;;;;;;;;;;;4899105;29;8556;-79
2022/06/09 11:18:25;;;;;;;;;;;;;;;;;;4899096;29;8661;-79
2022/06/09 11:21:08;;;;;;;;;;;;;;;;;;4899219;29;8974;-80
2022/06/09 11:23:36;;;;;;;;;;;;;;;;;;4898943;29;8916;-80
2022/06/09 11:26:02;;;;;;;;;;;;;;;;;;4898448;29;8553;-83
2022/06/09 11:28:34;;;;;;;;;;;;;;;;;;4899007;29;8744;-82
2022/06/09 11:31:29;;;;;;;;;;;;;;;;;;4898864;29;9311;-83
2022/06/09 11:34:13;;;;;;;;;;;;;;;;;;4898261;29;8522;-82
2022/06/09 11:36:41;;;;;;;;;;;;;;;;;;4899647;29;8529;-82
2022/06/09 11:39:25;;;;;;;;;;;;;;;;;;4898660;29;8777;-82
2022/06/09 11:42:00;;;;;;;;;;;;;;;;;;4898475;29;8539;-83
2022/06/09 11:44:37;;;;;;;;;;;;;;;;;;4898711;29;8553;-84
2022/06/09 11:47:11;;;;;;;;;;;;;;;;;;4898511;29;8555;-84
2022/06/09 11:49:37;;;;;;;;;;;;;;;;;;4898817;29;8536;-84
2022/06/09 11:52:08;;;;;;;;;;;;;;;;;;4898792;29;8826;-84
2022/06/09 11:54:43;;;;;;;;;;;;;;;;;;4898839;29;8587;-84
2022/06/09 11:57:41;;;;;;;;;;;;;;;;;;4898443;29;7529;-83
2022/06/09 12:00:19;;;;;;;;;;;;;;;;;;4898407;29;7180;-84
2022/06/09 12:02:44;;;;;;;;;;;;;;;;;;4898594;29;7347;-84
2022/06/09 12:05:21;;;;;;;;;;;;;;;;;;4897127;29;7144;-84
2022/06/09 12:08:05;;;;;;;;;;;;;;;;;;4898586;29;8856;-84
2022/06/09 12:10:40;;;;;;;;;;;;;;;;;;4898394;29;8532;-84
2022/06/09 12:13:12;;;;;;;;;;;;;;;;;;4899069;29;8457;-85
2022/06/09 12:15:56;;;;;;;;;;;;;;;;;;4898268;29;7360;-84
2022/06/09 12:18:24;;;;;;;;;;;;;;;;;;4898179;29;7562;-84
2022/06/09 12:20:50;;;;;;;;;;;;;;;;;;4898145;29;8764;-85
2022/06/09 12:23:18;;;;;;;;;;;;;;;;;;4900159;29;7359;-85
2022/06/09 12:25:44;;;;;;;;;;;;;;;;;;4901953;29;7382;-84
2022/06/09 12:28:39;;;;;;;;;;;;;;;;;;4901907;29;8524;-84
2022/06/09 12:31:09;;;;;;;;;;;;;;;;;;4902815;29;8446;-84
2022/06/09 12:33:37;;;;;;;;;;;;;;;;;;4902028;29;7162;-84
2022/06/09 12:36:11;;;;;;;;;;;;;;;;;;4901971;29;7168;-84
2022/06/09 12:38:42;;;;;;;;;;;;;;;;;;4901910;29;7241;-84
2022/06/09 12:41:17;;;;;;;;;;;;;;;;;;4851030;29;7153;-84
2022/06/09 12:43:44;;;;;;;;;;;;;;;;;;4879040;29;7184;-85
2022/06/09 12:46:16;;;;;;;;;;;;;;;;;;4902120;29;8885;-84
2022/06/09 12:48:42;;;;;;;;;;;;;;;;;;4901579;29;8540;-83
2022/06/09 12:51:15;;;;;;;;;;;;;;;;;;4901894;29;8772;-84
2022/06/09 12:53:48;;;;;;;;;;;;;;;;;;4901880;29;8975;-84
2022/06/09 12:56:24;;;;;;;;;;;;;;;;;;4886915;29;8968;-84
2022/06/09 12:58:50;;;;;;;;;;;;;;;;;;4852707;29;11988;-84
2022/06/09 13:01:19;;;;;;;;;;;;;;;;;;4897574;29;8650;-84
2022/06/09 13:03:47;;;;;;;;;;;;;;;;;;4900508;29;8443;-84
2022/06/09 13:06:25;;;;;;;;;;;;;;;;;;4901546;29;8592;-84
2022/06/09 13:08:55;;;;;;;;;;;;;;;;;;4866564;29;8576;-84
2022/06/09 13:14:19;;;;;;;;;;;;;;;;;;4902210;29;6913;-84
2022/06/09 13:16:48;;;;;;;;;;;;;;;;;;4901165;29;8448;-84
2022/06/09 13:19:17;;;;;;;;;;;;;;;;;;4901174;29;7960;-83
2022/06/09 13:21:44;;;;;;;;;;;;;;;;;;4901550;29;9426;-84
2022/06/09 13:24:22;;;;;;;;;;;;;;;;;;4901375;29;9681;-84
2022/06/09 13:26:50;;;;;;;;;;;;;;;;;;4901102;29;7367;-84
2022/06/09 13:29:25;;;;;;;;;;;;;;;;;;4900686;29;8956;-85
2022/06/09 13:31:53;;;;;;;;;;;;;;;;;;4900679;29;8598;-84
2022/06/09 13:34:23;;;;;;;;;;;;;;;;;;4900504;29;8565;-90
2022/06/09 13:36:55;;;;;;;;;;;;;;;;;;4896562;29;8564;-84
2022/06/09 13:39:23;;;;;;;;;;;;;;;;;;4899614;29;8499;-80
2022/06/09 13:41:51;;;;;;;;;;;;;;;;;;4899965;29;8439;-83
2022/06/09 13:44:22;;;;;;;;;;;;;;;;;;4896822;29;7196;-81
2022/06/09 13:47:08;;;;;;;;;;;;;;;;;;4881655;29;8480;-83
2022/06/09 13:49:48;;;;;;;;;;;;;;;;;;4890894;29;8577;-80
2022/06/09 13:52:32;;;;;;;;;;;;;;;;;;4880976;29;7637;-79
2022/06/09 13:54:59;;;;;;;;;;;;;;;;;;4879767;29;7188;-84
2022/06/09 13:57:31;;;;;;;;;;;;;;;;;;4881186;29;8870;-84
2022/06/09 13:59:57;;;;;;;;;;;;;;;;;;4880265;29;8659;-84
2022/06/09 14:02:27;;;;;;;;;;;;;;;;;;4880490;29;8573;-82
2022/06/09 14:04:53;;;;;;;;;;;;;;;;;;4893037;29;7325;-74
2022/06/09 14:07:22;;;;;;;;;;;;;;;;;;4899307;29;7702;-81
2022/06/09 14:09:49;;;;;;;;;;;;;;;;;;4900739;29;8636;-84
2022/06/09 14:12:15;;;;;;;;;;;;;;;;;;4900264;29;8515;-84
2022/06/09 14:14:42;;;;;;;;;;;;;;;;;;4900274;29;7185;-84
2022/06/09 14:17:18;;;;;;;;;;;;;;;;;;4900808;29;7295;-84
2022/06/09 14:19:43;;;;;;;;;;;;;;;;;;4899980;29;8548;-84
2022/06/09 14:22:10;;;;;;;;;;;;;;;;;;4900097;29;8524;-84
2022/06/09 14:24:35;;;;;;;;;;;;;;;;;;4900783;29;8410;-84
2022/06/09 14:27:02;;;;;;;;;;;;;;;;;;4900188;29;7278;-84
2022/06/09 14:29:27;;;;;;;;;;;;;;;;;;4900338;29;7465;-84
2022/06/09 14:31:53;;;;;;;;;;;;;;;;;;4900023;29;7157;-84
2022/06/09 14:34:18;;;;;;;;;;;;;;;;;;4899846;29;7299;-84
2022/06/09 14:36:45;;;;;;;;;;;;;;;;;;4899838;29;8439;-84
2022/06/09 14:39:13;;;;;;;;;;;;;;;;;;4899966;29;7201;-84
2022/06/09 14:41:40;;;;;;;;;;;;;;;;;;4899590;29;7542;-84
2022/06/09 14:44:05;;;;;;;;;;;;;;;;;;4899712;29;9609;-84
2022/06/09 14:46:33;;;;;;;;;;;;;;;;;;4899448;29;7328;-84
2022/06/09 14:48:59;;;;;;;;;;;;;;;;;;4900074;29;8487;-84
2022/06/09 14:51:25;;;;;;;;;;;;;;;;;;4899718;29;8543;-84
2022/06/09 14:53:51;;;;;;;;;;;;;;;;;;4900236;29;9397;-84
2022/06/09 14:56:22;;;;;;;;;;;;;;;;;;4899147;29;7151;-84
2022/06/09 14:58:48;;;;;;;;;;;;;;;;;;4898994;29;8841;-84
2022/06/09 15:01:15;;;;;;;;;;;;;;;;;;4899407;29;8522;-84
2022/06/09 15:03:41;;;;;;;;;;;;;;;;;;4899357;29;7310;-84
2022/06/09 15:06:09;;;;;;;;;;;;;;;;;;4899132;29;8811;-84
2022/06/09 15:08:35;;;;;;;;;;;;;;;;;;4899265;29;7359;-84
2022/06/09 15:11:00;;;;;;;;;;;;;;;;;;4899135;29;8842;-84
2022/06/09 15:13:26;;;;;;;;;;;;;;;;;;4898994;29;7332;-84
2022/06/09 15:15:51;;;;;;;;;;;;;;;;;;4899202;29;8545;-84
2022/06/09 15:18:20;;;;;;;;;;;;;;;;;;4899549;29;8797;-83
2022/06/09 15:20:47;;;;;;;;;;;;;;;;;;4899177;29;7355;-84
2022/06/09 15:23:13;;;;;;;;;;;;;;;;;;4880052;29;8667;-84
2022/06/09 15:25:39;;;;;;;;;;;;;;;;;;4877634;29;7294;-84
2022/06/09 15:28:05;;;;;;;;;;;;;;;;;;4877136;29;7130;-79
2022/06/09 15:30:33;;;;;;;;;;;;;;;;;;4877768;29;7458;-80
2022/06/09 15:33:00;;;;;;;;;;;;;;;;;;4878223;29;9042;-81
2022/06/09 15:35:27;;;;;;;;;;;;;;;;;;4877514;29;8641;-80
2022/06/09 15:37:53;;;;;;;;;;;;;;;;;;4876811;29;8576;-80
2022/06/09 15:40:21;;;;;;;;;;;;;;;;;;4877633;29;7378;-80
2022/06/09 15:42:47;;;;;;;;;;;;;;;;;;4877225;29;8902;-79
2022/06/09 15:45:14;;;;;;;;;;;;;;;;;;4877112;29;8757;-80
2022/06/09 15:47:40;;;;;;;;;;;;;;;;;;4876766;29;7120;-80
2022/06/09 15:50:07;;;;;;;;;;;;;;;;;;4877697;29;8914;-79
2022/06/09 15:52:32;;;;;;;;;;;;;;;;;;4877380;29;8568;-82
2022/06/09 15:54:58;;;;;;;;;;;;;;;;;;4877551;29;8562;-80
2022/06/09 15:57:23;;;;;;;;;;;;;;;;;;4876683;29;9732;-81
2022/06/09 15:59:49;;;;;;;;;;;;;;;;;;4878553;29;8543;-81
2022/06/09 16:02:15;;;;;;;;;;;;;;;;;;4898257;29;8540;-79
2022/06/09 16:04:42;;;;;;;;;;;;;;;;;;4899685;29;8583;-79
2022/06/09 16:07:09;;;;;;;;;;;;;;;;;;4898279;29;8564;-79
2022/06/09 16:09:35;;;;;;;;;;;;;;;;;;4898258;29;8625;-80
2022/06/09 16:12:01;;;;;;;;;;;;;;;;;;4898428;29;8539;-79
2022/06/09 16:14:26;;;;;;;;;;;;;;;;;;4898107;29;8456;-80
2022/06/09 16:16:52;;;;;;;;;;;;;;;;;;4898420;29;8524;-79
2022/06/09 16:19:17;;;;;;;;;;;;;;;;;;4898478;29;8840;-80
2022/06/09 16:21:43;;;;;;;;;;;;;;;;;;4898340;29;8550;-80
2022/06/09 16:24:09;;;;;;;;;;;;;;;;;;4898929;29;8583;-79
2022/06/09 16:26:34;;;;;;;;;;;;;;;;;;4898479;29;7217;-79
2022/06/09 16:29:00;;;;;;;;;;;;;;;;;;4843948;29;8494;-83
2022/06/09 16:31:25;;;;;;;;;;;;;;;;;;4880498;29;8658;-82
2022/06/09 16:33:51;;;;;;;;;;;;;;;;;;4898156;29;7129;-83
2022/06/09 16:36:19;;;;;;;;;;;;;;;;;;4898119;29;8431;-83
2022/06/09 16:38:44;;;;;;;;;;;;;;;;;;4898050;29;8494;-83
2022/06/09 16:41:10;;;;;;;;;;;;;;;;;;4897819;29;7136;-84
2022/06/09 16:43:35;;;;;;;;;;;;;;;;;;4898397;29;8531;-84
2022/06/09 16:46:01;;;;;;;;;;;;;;;;;;4898426;29;7325;-84
2022/06/09 16:48:27;;;;;;;;;;;;;;;;;;4897885;29;7145;-84
2022/06/09 16:50:53;;;;;;;;;;;;;;;;;;4897659;29;7131;-84
2022/06/09 16:53:20;;;;;;;;;;;;;;;;;;4897262;29;8622;-84
2022/06/09 16:55:46;;;;;;;;;;;;;;;;;;4897739;29;8956;-84
2022/06/09 16:58:13;;;;;;;;;;;;;;;;;;4898286;29;8583;-84
2022/06/09 17:00:39;;;;;;;;;;;;;;;;;;4898639;29;7486;-84
2022/06/09 17:03:06;;;;;;;;;;;;;;;;;;4897770;29;7189;-84
2022/06/09 17:05:34;;;;;;;;;;;;;;;;;;4898588;29;7154;-84
2022/06/09 17:08:01;;;;;;;;;;;;;;;;;;4897447;29;8512;-84
2022/06/09 17:10:30;;;;;;;;;;;;;;;;;;4899915;29;7283;-84
2022/06/09 17:12:56;;;;;;;;;;;;;;;;;;4900762;29;8467;-84
2022/06/09 17:15:23;;;;;;;;;;;;;;;;;;4901078;29;7270;-84
2022/06/09 17:17:49;;;;;;;;;;;;;;;;;;4900567;29;8833;-84
2022/06/09 17:20:15;;;;;;;;;;;;;;;;;;4900931;29;7260;-84
2022/06/09 17:22:41;;;;;;;;;;;;;;;;;;4901000;29;7149;-84
2022/06/09 17:25:08;;;;;;;;;;;;;;;;;;4901372;29;7542;-84
2022/06/09 17:27:34;;;;;;;;;;;;;;;;;;4900666;29;8486;-84
2022/06/09 17:29:59;;;;;;;;;;;;;;;;;;4901079;29;8414;-85
2022/06/09 17:32:25;;;;;;;;;;;;;;;;;;4901421;29;8808;-84
2022/06/09 17:34:54;;;;;;;;;;;;;;;;;;4901271;29;8901;-83
2022/06/09 17:37:21;;;;;;;;;;;;;;;;;;4901405;29;8893;-84
2022/06/09 17:39:47;;;;;;;;;;;;;;;;;;4901348;29;8537;-83